createdAt,value
2018-05-17T00:01:38.802Z,12.40
2018-05-17T00:04:07.222Z,12.30
2018-05-17T00:06:37.047Z,12.30
2018-05-17T00:09:06.558Z,12.20
2018-05-17T00:11:34.742Z,12.10
2018-05-17T00:14:03.612Z,12.10
2018-05-17T00:16:32.762Z,12.00
2018-05-17T00:19:01.810Z,12.10
2018-05-17T00:21:30.013Z,12.00
2018-05-17T00:23:58.456Z,11.90
2018-05-17T00:26:26.882Z,11.90
2018-05-17T00:28:55.287Z,11.90
2018-05-17T00:31:24.659Z,11.80
2018-05-17T00:33:53.188Z,11.70
2018-05-17T00:36:21.608Z,11.70
2018-05-17T00:38:49.757Z,11.70
2018-05-17T00:41:18.023Z,11.70
2018-05-17T00:43:46.766Z,11.70
2018-05-17T00:46:14.919Z,11.60
2018-05-17T00:48:45.039Z,11.70
2018-05-17T00:51:14.224Z,11.50
2018-05-17T00:53:43.585Z,11.40
2018-05-17T00:56:12.178Z,11.40
2018-05-17T00:58:40.811Z,11.40
2018-05-17T01:01:09.775Z,11.50
2018-05-17T01:03:38.931Z,11.50
2018-05-17T01:06:07.142Z,11.40
2018-05-17T01:08:35.745Z,11.40
2018-05-17T01:11:04.413Z,11.40
2018-05-17T01:13:32.835Z,11.40
2018-05-17T01:16:01.003Z,11.40
2018-05-17T01:18:29.886Z,11.40
2018-05-17T01:20:58.379Z,11.30
2018-05-17T01:23:27.238Z,11.20
2018-05-17T01:25:55.846Z,11.30
2018-05-17T01:28:25.346Z,11.30
2018-05-17T01:30:53.872Z,11.30
2018-05-17T01:33:22.699Z,11.40
2018-05-17T01:35:51.689Z,11.40
2018-05-17T01:38:27.582Z,11.30
2018-05-17T01:40:55.774Z,11.40
2018-05-17T01:43:24.634Z,11.30
2018-05-17T01:45:53.904Z,11.30
2018-05-17T01:48:22.054Z,11.30
2018-05-17T01:50:51.842Z,11.30
2018-05-17T01:53:20.023Z,11.30
2018-05-17T01:55:50.205Z,11.20
2018-05-17T01:58:19.234Z,11.30
2018-05-17T02:00:47.878Z,11.30
2018-05-17T02:03:16.707Z,11.30
2018-05-17T02:05:45.858Z,11.30
2018-05-17T02:08:14.039Z,11.20
2018-05-17T02:10:42.910Z,11.30
2018-05-17T02:13:11.091Z,11.30
2018-05-17T02:15:40.171Z,11.30
2018-05-17T02:18:08.815Z,11.30
2018-05-17T02:20:36.963Z,11.30
2018-05-17T02:23:05.654Z,11.30
2018-05-17T02:25:34.861Z,11.20
2018-05-17T02:28:03.778Z,11.20
2018-05-17T02:30:32.693Z,11.20
2018-05-17T02:33:01.843Z,11.30
2018-05-17T02:35:30.986Z,11.30
2018-05-17T02:38:00.219Z,11.40
2018-05-17T02:40:28.885Z,11.30
2018-05-17T02:42:57.473Z,11.40
2018-05-17T02:45:26.551Z,11.30
2018-05-17T02:47:54.985Z,11.20
2018-05-17T02:50:23.139Z,11.20
2018-05-17T02:52:51.527Z,11.20
2018-05-17T02:55:20.145Z,11.20
2018-05-17T02:57:48.669Z,11.20
2018-05-17T03:00:17.825Z,11.20
2018-05-17T03:02:46.974Z,11.20
2018-05-17T03:05:15.761Z,11.20
2018-05-17T03:07:44.003Z,11.10
2018-05-17T03:10:12.411Z,11.10
2018-05-17T03:12:41.039Z,11.00
2018-05-17T03:15:09.498Z,10.90
2018-05-17T03:17:37.695Z,10.90
2018-05-17T03:20:06.550Z,10.80
2018-05-17T03:22:35.374Z,10.90
2018-05-17T03:25:03.982Z,10.90
2018-05-17T03:27:32.176Z,10.90
2018-05-17T03:30:01.641Z,10.80
2018-05-17T03:32:29.743Z,10.90
2018-05-17T03:34:58.750Z,10.90
2018-05-17T03:37:27.727Z,10.90
2018-05-17T03:39:56.623Z,10.90
2018-05-17T03:42:26.067Z,10.90
2018-05-17T03:44:54.522Z,10.90
2018-05-17T03:47:23.662Z,10.90
2018-05-17T03:49:52.763Z,11.00
2018-05-17T03:52:21.869Z,11.10
2018-05-17T03:54:50.047Z,11.00
2018-05-17T03:57:19.227Z,11.00
2018-05-17T03:59:47.660Z,11.10
2018-05-17T04:02:27.783Z,11.10
2018-05-17T04:05:08.691Z,11.10
2018-05-17T04:07:36.807Z,11.10
2018-05-17T04:10:04.989Z,11.00
2018-05-17T04:12:33.531Z,11.00
2018-05-17T04:15:02.071Z,11.10
2018-05-17T04:17:30.737Z,11.10
2018-05-17T04:19:59.122Z,11.00
2018-05-17T04:22:27.986Z,11.10
2018-05-17T04:24:56.628Z,11.10
2018-05-17T04:27:24.781Z,11.20
2018-05-17T04:29:52.958Z,11.10
2018-05-17T04:32:21.362Z,11.10
2018-05-17T04:34:49.790Z,11.10
2018-05-17T04:37:18.943Z,11.10
2018-05-17T04:39:47.142Z,11.10
2018-05-17T04:42:16.482Z,11.10
2018-05-17T04:44:44.702Z,11.10
2018-05-17T04:47:14.703Z,11.20
2018-05-17T04:49:43.138Z,11.10
2018-05-17T04:52:11.664Z,11.30
2018-05-17T04:54:40.161Z,11.20
2018-05-17T04:57:08.714Z,11.20
2018-05-17T04:59:36.861Z,11.30
2018-05-17T05:02:06.171Z,11.30
2018-05-17T05:04:34.814Z,11.30
2018-05-17T05:07:03.966Z,11.60
2018-05-17T05:09:33.923Z,11.60
2018-05-17T05:12:02.007Z,11.50
2018-05-17T05:14:30.483Z,11.50
2018-05-17T05:16:59.009Z,11.50
2018-05-17T05:19:29.506Z,11.60
2018-05-17T05:21:57.686Z,11.60
2018-05-17T05:24:26.434Z,11.60
2018-05-17T05:26:54.618Z,11.50
2018-05-17T05:29:22.807Z,11.60
2018-05-17T05:31:52.255Z,11.70
2018-05-17T05:34:20.881Z,11.70
2018-05-17T05:36:49.268Z,11.80
2018-05-17T05:39:17.895Z,11.70
2018-05-17T05:41:46.295Z,11.90
2018-05-17T05:44:14.739Z,12.10
2018-05-17T05:46:44.111Z,12.10
2018-05-17T05:49:12.683Z,12.00
2018-05-17T05:51:41.501Z,12.20
2018-05-17T05:54:10.430Z,12.30
2018-05-17T05:56:39.806Z,12.30
2018-05-17T05:59:08.959Z,12.20
2018-05-17T06:01:37.133Z,12.40
2018-05-17T06:04:06.207Z,12.40
2018-05-17T06:06:34.812Z,12.40
2018-05-17T06:09:02.999Z,12.40
2018-05-17T06:11:31.796Z,12.30
2018-05-17T06:14:01.227Z,12.30
2018-05-17T06:16:29.996Z,12.30
2018-05-17T06:18:58.626Z,12.30
2018-05-17T06:21:27.663Z,12.30
2018-05-17T06:23:55.854Z,12.20
2018-05-17T06:26:24.519Z,12.20
2018-05-17T06:28:53.043Z,12.20
2018-05-17T06:31:22.717Z,12.60
2018-05-17T06:33:52.809Z,12.70
2018-05-17T06:36:21.847Z,12.80
2018-05-17T06:38:50.039Z,12.80
2018-05-17T06:41:18.702Z,12.80
2018-05-17T06:43:46.908Z,12.90
2018-05-17T06:46:15.407Z,12.90
2018-05-17T06:48:43.599Z,12.80
2018-05-17T06:51:12.138Z,12.80
2018-05-17T06:53:40.806Z,12.80
2018-05-17T06:56:10.065Z,12.90
2018-05-17T06:58:38.483Z,13.00
2018-05-17T07:01:07.350Z,13.20
2018-05-17T07:03:35.497Z,13.20
2018-05-17T07:06:04.506Z,13.20
2018-05-17T07:08:33.523Z,13.10
2018-05-17T07:11:02.157Z,13.10
2018-05-17T07:13:31.190Z,13.30
2018-05-17T07:15:59.626Z,13.20
2018-05-17T07:18:28.332Z,13.20
2018-05-17T07:20:56.676Z,13.20
2018-05-17T07:23:24.829Z,13.40
2018-05-17T07:25:53.833Z,13.60
2018-05-17T07:28:22.254Z,13.90
2018-05-17T07:30:50.883Z,13.80
2018-05-17T07:33:19.027Z,13.70
2018-05-17T07:35:48.342Z,14.00
2018-05-17T07:38:17.177Z,13.90
2018-05-17T07:40:45.791Z,14.10
2018-05-17T07:43:14.962Z,14.40
2018-05-17T07:45:43.942Z,14.10
2018-05-17T07:48:12.653Z,14.00
2018-05-17T07:50:41.806Z,14.00
2018-05-17T07:53:10.233Z,14.20
2018-05-17T07:55:38.757Z,14.20
2018-05-17T07:58:07.178Z,14.20
2018-05-17T08:00:35.720Z,14.10
2018-05-17T08:03:04.747Z,14.30
2018-05-17T08:05:33.899Z,14.40
2018-05-17T08:08:03.576Z,14.40
2018-05-17T08:10:32.527Z,14.50
2018-05-17T08:13:01.451Z,14.40
2018-05-17T08:15:29.638Z,14.30
2018-05-17T08:17:57.886Z,14.20
2018-05-17T08:20:27.325Z,14.00
2018-05-17T08:22:56.490Z,14.00
2018-05-17T08:25:25.134Z,13.80
2018-05-17T08:27:53.869Z,13.80
2018-05-17T08:30:22.904Z,13.60
2018-05-17T08:32:51.303Z,13.80
2018-05-17T08:35:19.931Z,13.80
2018-05-17T08:37:48.355Z,13.80
2018-05-17T08:40:16.982Z,14.20
2018-05-17T08:42:45.495Z,14.40
2018-05-17T08:45:14.138Z,14.50
2018-05-17T08:47:42.701Z,14.40
2018-05-17T08:50:11.227Z,14.60
2018-05-17T08:52:39.376Z,14.50
2018-05-17T08:55:07.958Z,14.20
2018-05-17T08:57:36.998Z,14.20
2018-05-17T09:00:07.209Z,14.10
2018-05-17T09:02:36.432Z,14.20
2018-05-17T09:05:05.607Z,14.10
2018-05-17T09:07:34.040Z,14.10
2018-05-17T09:10:02.530Z,14.10
2018-05-17T09:12:30.986Z,14.10
2018-05-17T09:14:59.619Z,14.00
2018-05-17T09:17:27.822Z,14.10
2018-05-17T09:19:56.459Z,13.80
2018-05-17T09:22:25.807Z,13.80
2018-05-17T09:24:54.023Z,13.90
2018-05-17T09:27:23.076Z,14.10
2018-05-17T09:29:51.681Z,14.10
2018-05-17T09:32:20.863Z,14.10
2018-05-17T09:34:49.495Z,14.20
2018-05-17T09:37:18.019Z,14.20
2018-05-17T09:39:46.440Z,14.20
2018-05-17T09:42:14.591Z,14.20
2018-05-17T09:44:43.874Z,14.30
2018-05-17T09:47:12.749Z,14.40
2018-05-17T09:49:41.574Z,14.40
2018-05-17T09:52:09.767Z,14.60
2018-05-17T09:54:37.942Z,14.60
2018-05-17T09:57:06.838Z,14.50
2018-05-17T09:59:35.049Z,14.50
2018-05-17T10:02:03.550Z,14.60
2018-05-17T10:04:32.119Z,14.60
2018-05-17T10:07:02.091Z,14.50
2018-05-17T10:09:31.039Z,14.60
2018-05-17T10:11:59.219Z,14.60
2018-05-17T10:14:28.205Z,14.70
2018-05-17T10:16:56.795Z,14.70
2018-05-17T10:19:26.091Z,14.60
2018-05-17T10:21:55.409Z,14.70
2018-05-17T10:24:23.766Z,14.70
2018-05-17T10:26:51.910Z,14.80
2018-05-17T10:29:20.697Z,15.10
2018-05-17T10:31:48.995Z,15.10
2018-05-17T10:34:17.660Z,15.20
2018-05-17T10:36:45.806Z,15.10
2018-05-17T10:39:14.814Z,15.30
2018-05-17T10:41:43.030Z,15.50
2018-05-17T10:44:11.623Z,15.50
2018-05-17T10:46:40.079Z,15.50
2018-05-17T10:49:08.501Z,15.50
2018-05-17T10:51:36.645Z,15.60
2018-05-17T10:54:05.135Z,15.60
2018-05-17T10:56:33.517Z,15.90
2018-05-17T10:59:01.711Z,16.10
2018-05-17T11:01:30.293Z,16.10
2018-05-17T11:03:58.714Z,16.10
2018-05-17T11:06:26.869Z,16.00
2018-05-17T11:08:55.078Z,16.00
2018-05-17T11:11:23.875Z,16.10
2018-05-17T11:13:52.294Z,16.30
2018-05-17T11:16:20.535Z,16.40
2018-05-17T11:18:49.947Z,16.30
2018-05-17T11:21:19.115Z,16.20
2018-05-17T11:23:47.755Z,16.30
2018-05-17T11:26:16.686Z,16.10
2018-05-17T11:28:44.886Z,16.30
2018-05-17T11:31:13.071Z,16.40
2018-05-17T11:33:41.666Z,16.60
2018-05-17T11:36:11.310Z,16.90
2018-05-17T11:38:39.519Z,16.80
2018-05-17T11:41:09.614Z,16.90
2018-05-17T11:43:38.558Z,17.00
2018-05-17T11:46:07.710Z,16.90
2018-05-17T11:48:36.690Z,16.90
2018-05-17T11:51:04.975Z,16.90
2018-05-17T11:53:33.620Z,17.10
2018-05-17T11:56:02.662Z,17.20
2018-05-17T11:58:31.608Z,17.30
2018-05-17T12:01:00.538Z,17.50
2018-05-17T12:03:28.774Z,17.30
2018-05-17T12:05:58.022Z,17.40
2018-05-17T12:08:27.172Z,17.30
2018-05-17T12:10:56.311Z,17.40
2018-05-17T12:13:24.646Z,17.50
2018-05-17T12:15:53.793Z,17.50
2018-05-17T12:18:22.005Z,17.50
2018-05-17T12:20:50.426Z,17.60
2018-05-17T12:23:18.579Z,17.60
2018-05-17T12:25:47.268Z,17.70
2018-05-17T12:28:16.425Z,17.90
2018-05-17T12:30:44.622Z,17.90
2018-05-17T12:33:13.459Z,18.10
2018-05-17T12:35:42.507Z,18.30
2018-05-17T12:38:11.464Z,18.30
2018-05-17T12:40:39.885Z,18.30
2018-05-17T12:43:08.306Z,18.40
2018-05-17T12:45:36.919Z,18.50
2018-05-17T12:48:05.357Z,18.50
2018-05-17T12:50:34.196Z,18.70
2018-05-17T12:53:02.427Z,18.70
2018-05-17T12:55:32.906Z,19.00
2018-05-17T12:58:02.386Z,18.90
2018-05-17T13:00:31.537Z,18.50
2018-05-17T13:02:59.714Z,18.40
2018-05-17T13:05:28.174Z,18.60
2018-05-17T13:07:57.103Z,18.60
2018-05-17T13:10:25.810Z,18.60
2018-05-17T13:12:54.852Z,18.50
2018-05-17T13:15:24.050Z,18.40
2018-05-17T13:17:53.087Z,18.60
2018-05-17T13:20:22.249Z,18.80
2018-05-17T13:22:50.471Z,18.90
2018-05-17T13:25:18.691Z,18.90
2018-05-17T13:27:49.383Z,18.80
2018-05-17T13:30:17.739Z,18.80
2018-05-17T13:32:46.326Z,18.90
2018-05-17T13:35:14.970Z,19.20
2018-05-17T13:37:43.394Z,19.20
2018-05-17T13:40:11.812Z,19.10
2018-05-17T13:42:41.073Z,19.20
2018-05-17T13:45:09.455Z,19.40
2018-05-17T13:47:38.388Z,19.80
2018-05-17T13:50:06.855Z,19.80
2018-05-17T13:52:35.999Z,19.60
2018-05-17T13:55:04.428Z,19.70
2018-05-17T13:57:32.850Z,19.60
2018-05-17T14:00:01.585Z,19.60
2018-05-17T14:02:30.246Z,19.80
2018-05-17T14:04:58.966Z,19.80
2018-05-17T14:07:27.334Z,20.00
2018-05-17T14:09:56.419Z,20.20
2018-05-17T14:12:24.562Z,20.30
2018-05-17T14:14:53.157Z,20.50
2018-05-17T14:17:21.542Z,20.10
2018-05-17T14:19:49.734Z,19.90
2018-05-17T14:22:18.439Z,20.10
2018-05-17T14:24:49.438Z,20.20
2018-05-17T14:27:19.117Z,20.20
2018-05-17T14:29:47.757Z,20.10
2018-05-17T14:32:16.180Z,20.20
2018-05-17T14:34:44.330Z,20.10
2018-05-17T14:37:13.962Z,20.00
2018-05-17T14:39:43.218Z,20.30
2018-05-17T14:42:11.639Z,20.20
2018-05-17T14:44:40.688Z,20.80
2018-05-17T14:47:08.890Z,21.40
2018-05-17T14:49:37.426Z,22.00
2018-05-17T14:52:05.574Z,22.40
2018-05-17T14:54:33.759Z,22.60
2018-05-17T14:57:02.710Z,22.90
2018-05-17T14:59:33.706Z,22.80
2018-05-17T15:04:33.205Z,22.40
2018-05-17T15:07:02.397Z,23.00
2018-05-17T15:09:30.582Z,23.00
2018-05-17T15:11:58.774Z,23.10
2018-05-17T15:14:27.242Z,23.50
2018-05-17T15:16:56.015Z,23.20
2018-05-17T15:19:25.988Z,22.90
2018-05-17T15:21:54.507Z,22.90
2018-05-17T15:24:23.017Z,23.10
2018-05-17T15:26:51.542Z,23.50
2018-05-17T15:29:20.416Z,23.60
2018-05-17T15:31:49.882Z,23.20
2018-05-17T15:34:18.407Z,23.10
2018-05-17T15:36:46.599Z,22.90
2018-05-17T15:39:15.238Z,23.10
2018-05-17T15:41:43.496Z,23.40
2018-05-17T15:44:11.663Z,23.40
2018-05-17T15:46:40.307Z,23.50
2018-05-17T15:49:08.830Z,24.20
2018-05-17T15:51:37.218Z,24.20
2018-05-17T15:54:05.398Z,24.70
2018-05-17T15:56:33.583Z,24.20
2018-05-17T15:59:02.270Z,24.00
2018-05-17T16:01:30.937Z,24.30
2018-05-17T16:03:59.357Z,24.70
2018-05-17T16:06:27.627Z,24.20
2018-05-17T16:08:56.658Z,24.50
2018-05-17T16:11:25.143Z,24.50
2018-05-17T16:13:53.669Z,24.30
2018-05-17T16:16:22.366Z,24.00
2018-05-17T16:18:50.547Z,23.20
2018-05-17T16:21:18.725Z,22.70
2018-05-17T16:23:47.863Z,22.60
2018-05-17T16:26:16.404Z,22.30
2018-05-17T16:28:45.452Z,22.30
2018-05-17T16:31:13.630Z,21.90
2018-05-17T16:33:42.710Z,21.70
2018-05-17T16:36:11.514Z,22.10
2018-05-17T16:38:40.054Z,22.40
2018-05-17T16:41:08.903Z,22.70
2018-05-17T16:43:37.507Z,22.40
2018-05-17T16:46:05.966Z,22.30
2018-05-17T16:48:34.423Z,22.00
2018-05-17T16:51:02.539Z,21.60
2018-05-17T16:53:30.727Z,21.30
2018-05-17T16:56:00.172Z,20.20
2018-05-17T16:58:28.431Z,20.10
2018-05-17T17:00:58.755Z,19.30
2018-05-17T17:03:27.212Z,19.30
2018-05-17T17:05:55.358Z,19.20
2018-05-17T17:08:24.726Z,19.00
2018-05-17T17:10:53.211Z,18.70
2018-05-17T17:13:22.034Z,18.80
2018-05-17T17:15:50.679Z,18.70
2018-05-17T17:18:19.515Z,18.60
2018-05-17T17:20:48.106Z,18.50
2018-05-17T17:23:16.311Z,18.20
2018-05-17T17:25:44.883Z,18.10
2018-05-17T17:28:13.815Z,18.10
2018-05-17T17:30:42.686Z,18.10
2018-05-17T17:33:10.774Z,18.00
2018-05-17T17:35:39.299Z,17.80
2018-05-17T17:38:08.126Z,17.50
2018-05-17T17:40:56.404Z,17.20
2018-05-17T17:43:24.643Z,17.20
2018-05-17T17:45:54.487Z,17.10
2018-05-17T17:48:24.236Z,17.00
2018-05-17T17:50:52.805Z,17.00
2018-05-17T17:53:21.399Z,16.90
2018-05-17T17:55:50.378Z,16.80
2018-05-17T17:58:19.114Z,16.70
2018-05-17T18:00:47.952Z,16.70
2018-05-17T18:03:16.478Z,16.70
2018-05-17T18:05:45.107Z,16.60
2018-05-17T18:08:14.469Z,16.40
2018-05-17T18:10:42.681Z,16.30
2018-05-17T18:13:11.314Z,16.30
2018-05-17T18:15:40.021Z,16.10
2018-05-17T18:18:09.479Z,15.90
2018-05-17T18:20:37.933Z,16.00
2018-05-17T18:23:06.532Z,16.00
2018-05-17T18:25:34.719Z,15.80
2018-05-17T18:28:03.202Z,15.80
2018-05-17T18:30:32.335Z,15.70
2018-05-17T18:33:02.409Z,15.50
2018-05-17T18:35:31.482Z,15.40
2018-05-17T18:38:00.427Z,15.40
2018-05-17T18:40:28.614Z,15.30
2018-05-17T18:42:56.830Z,15.30
2018-05-17T18:45:25.280Z,15.20
2018-05-17T18:47:54.117Z,15.20
2018-05-17T18:50:22.942Z,15.20
2018-05-17T18:52:51.471Z,15.00
2018-05-17T18:55:22.916Z,15.00
2018-05-17T18:57:48.326Z,14.90
2018-05-17T19:00:16.926Z,14.90
2018-05-17T19:02:45.419Z,14.80
2018-05-17T19:05:13.534Z,14.70
2018-05-17T19:07:41.805Z,14.60
2018-05-17T19:10:10.187Z,14.50
2018-05-17T19:12:39.374Z,14.50
2018-05-17T19:15:07.519Z,14.40
2018-05-17T19:17:35.786Z,14.30
2018-05-17T19:20:04.220Z,14.30
2018-05-17T19:22:33.255Z,14.30
2018-05-17T19:25:01.794Z,14.30
2018-05-17T19:27:30.183Z,14.20
2018-05-17T19:29:58.367Z,14.20
2018-05-17T19:32:28.072Z,14.00
2018-05-17T19:34:56.251Z,13.80
2018-05-17T19:37:26.166Z,13.80
2018-05-17T19:39:55.259Z,13.80
2018-05-17T19:42:24.293Z,13.70
2018-05-17T19:44:52.478Z,13.70
2018-05-17T19:47:21.376Z,13.60
2018-05-17T19:49:49.519Z,13.60
2018-05-17T19:52:18.699Z,13.50
2018-05-17T19:54:47.131Z,13.50
2018-05-17T19:57:15.514Z,13.40
2018-05-17T19:59:43.977Z,13.30
2018-05-17T20:02:12.917Z,13.40
2018-05-17T20:04:41.442Z,13.30
2018-05-17T20:07:10.138Z,13.20
2018-05-17T20:09:38.662Z,13.10
2018-05-17T20:12:07.228Z,13.10
2018-05-17T20:14:35.650Z,13.00
2018-05-17T20:17:04.070Z,13.00
2018-05-17T20:19:32.479Z,13.00
2018-05-17T20:22:01.122Z,12.90
2018-05-17T20:24:31.319Z,12.80
2018-05-17T20:27:00.471Z,12.60
2018-05-17T20:29:28.892Z,12.70
2018-05-17T20:31:57.798Z,12.70
2018-05-17T20:34:26.465Z,12.70
2018-05-17T20:36:54.613Z,12.60
2018-05-17T20:39:23.203Z,12.60
2018-05-17T20:41:51.612Z,12.50
2018-05-17T20:44:20.663Z,12.50
2018-05-17T20:46:49.303Z,12.50
2018-05-17T20:49:18.142Z,12.40
2018-05-17T20:51:46.310Z,12.40
2018-05-17T20:54:15.390Z,12.40
2018-05-17T20:56:44.659Z,12.20
2018-05-17T20:59:13.185Z,12.20
2018-05-17T21:01:41.607Z,12.10
2018-05-17T21:04:11.594Z,12.10
2018-05-17T21:06:40.746Z,12.00
2018-05-17T21:09:10.406Z,11.90
2018-05-17T21:11:38.591Z,11.90
2018-05-17T21:14:07.159Z,11.90
2018-05-17T21:16:35.789Z,11.90
2018-05-17T21:19:04.210Z,11.90
2018-05-17T21:21:32.359Z,11.80
2018-05-17T21:24:01.355Z,11.90
2018-05-17T21:26:29.999Z,11.80
2018-05-17T21:28:58.417Z,11.80
2018-05-17T21:31:27.848Z,11.80
2018-05-17T21:33:56.023Z,11.80
2018-05-17T21:36:25.875Z,11.70
2018-05-17T21:38:55.236Z,11.80
2018-05-17T21:41:23.387Z,11.80
2018-05-17T21:43:51.567Z,11.80
2018-05-17T21:46:20.818Z,11.80
2018-05-17T21:48:49.443Z,11.60
2018-05-17T21:51:17.618Z,11.70
2018-05-17T21:53:46.182Z,11.70
2018-05-17T21:56:14.559Z,11.70
2018-05-17T21:58:43.434Z,11.70
2018-05-17T22:01:11.862Z,11.70
2018-05-17T22:03:41.106Z,11.70
2018-05-17T22:06:10.085Z,11.60
2018-05-17T22:08:40.350Z,11.70
2018-05-17T22:11:09.098Z,11.80
2018-05-17T22:13:37.926Z,11.70
2018-05-17T22:16:06.352Z,11.70
2018-05-17T22:18:36.568Z,11.80
2018-05-17T22:21:05.082Z,11.80
2018-05-17T22:23:33.502Z,11.80
2018-05-17T22:26:02.342Z,11.80
2018-05-17T22:28:30.494Z,11.70
2018-05-17T22:31:00.124Z,11.70
2018-05-17T22:33:28.650Z,11.80
2018-05-17T22:35:57.719Z,11.90
2018-05-17T22:38:26.223Z,11.90
2018-05-17T22:40:54.370Z,11.90
2018-05-17T22:43:23.471Z,11.90
2018-05-17T22:45:52.623Z,11.90
2018-05-17T22:48:21.670Z,11.90
2018-05-17T22:50:50.891Z,11.80
2018-05-17T22:53:19.083Z,11.70
2018-05-17T22:55:48.186Z,12.00
2018-05-17T22:58:29.879Z,11.80
2018-05-17T23:00:58.054Z,11.80
2018-05-17T23:03:26.732Z,11.80
2018-05-17T23:05:55.214Z,11.90
2018-05-17T23:08:24.407Z,11.90
2018-05-17T23:10:52.998Z,11.90
2018-05-17T23:13:22.085Z,11.90
2018-05-17T23:15:51.133Z,11.80
2018-05-17T23:18:20.063Z,11.80
2018-05-17T23:20:48.247Z,11.80
2018-05-17T23:23:16.711Z,11.70
2018-05-17T23:25:45.132Z,11.80
2018-05-17T23:28:14.286Z,11.60
2018-05-17T23:30:42.670Z,11.60
2018-05-17T23:33:11.133Z,11.70
2018-05-17T23:35:39.548Z,11.70
2018-05-17T23:38:08.909Z,11.70
2018-05-17T23:43:43.666Z,11.60
2018-05-17T23:46:12.401Z,11.60
2018-05-17T23:48:41.032Z,11.60
2018-05-17T23:51:09.230Z,11.60
2018-05-17T23:53:38.310Z,11.60
2018-05-17T23:56:07.639Z,11.60
2018-05-17T23:58:36.875Z,11.70
